createdAt,value
2016-08-16T00:00:49.709Z,86.55
2016-08-16T00:01:49.701Z,86.65
2016-08-16T00:02:49.694Z,86.83
2016-08-16T00:03:49.690Z,86.83
2016-08-16T00:04:49.686Z,86.83
2016-08-16T00:05:49.680Z,86.65
2016-08-16T00:06:49.670Z,86.65
2016-08-16T00:07:49.671Z,87.02
2016-08-16T00:08:49.661Z,87.12
2016-08-16T00:09:49.662Z,87.12
2016-08-16T00:10:49.657Z,87.12
2016-08-16T00:11:49.650Z,86.83
2016-08-16T00:12:49.643Z,86.65
2016-08-16T00:13:49.634Z,86.74
2016-08-16T00:14:49.627Z,86.83
2016-08-16T00:15:49.630Z,86.74
2016-08-16T00:16:49.615Z,87.02
2016-08-16T00:17:49.715Z,87.31
2016-08-16T00:18:49.613Z,87.12
2016-08-16T00:19:50.797Z,87.02
2016-08-16T00:20:49.595Z,86.93
2016-08-16T00:21:49.593Z,87.12
2016-08-16T00:22:49.749Z,87.02
2016-08-16T00:23:49.578Z,87.6
2016-08-16T00:24:50.057Z,87.5
2016-08-16T00:25:49.567Z,87.5
2016-08-16T00:26:49.628Z,87.4
2016-08-16T00:28:49.551Z,87.4
2016-08-16T00:29:50.931Z,87.21
2016-08-16T00:30:50.679Z,87.21
2016-08-16T00:31:49.532Z,87.21
2016-08-16T00:32:49.528Z,87.31
2016-08-16T00:33:49.528Z,87.21
2016-08-16T00:34:49.628Z,87.21
2016-08-16T00:35:49.518Z,87.4
2016-08-16T00:36:49.512Z,87.12
2016-08-16T00:37:49.500Z,87.5
2016-08-16T00:38:49.500Z,87.6
2016-08-16T00:39:49.498Z,87.21
2016-08-16T00:40:49.484Z,87.69
2016-08-16T00:41:49.480Z,87.12
2016-08-16T00:42:50.163Z,87.5
2016-08-16T00:43:49.470Z,87.4
2016-08-16T00:44:49.461Z,87.4
2016-08-16T00:45:49.461Z,87.6
2016-08-16T00:46:49.454Z,87.21
2016-08-16T00:47:49.447Z,87.4
2016-08-16T00:48:49.439Z,87.69
2016-08-16T00:49:49.436Z,87.88
2016-08-16T00:50:49.430Z,87.88
2016-08-16T00:51:49.423Z,87.6
2016-08-16T00:52:49.422Z,87.6
2016-08-16T00:53:49.425Z,87.6
2016-08-16T00:54:49.410Z,87.6
2016-08-16T00:55:49.402Z,87.79
2016-08-16T00:56:49.391Z,87.79
2016-08-16T00:57:50.445Z,88.03
2016-08-16T00:58:49.586Z,87.74
2016-08-16T00:59:49.388Z,87.98
2016-08-16T01:00:49.375Z,88.07
2016-08-16T01:01:49.615Z,87.79
2016-08-16T01:02:49.358Z,87.98
2016-08-16T01:03:49.554Z,87.93
2016-08-16T01:04:49.351Z,87.98
2016-08-16T01:05:49.345Z,87.55
2016-08-16T01:06:49.341Z,87.74
2016-08-16T01:08:04.248Z,88.26
2016-08-16T01:08:49.335Z,87.88
2016-08-16T01:09:49.316Z,87.93
2016-08-16T01:10:49.719Z,87.93
2016-08-16T01:11:49.306Z,87.79
2016-08-16T01:12:49.298Z,87.84
2016-08-16T01:13:49.414Z,87.88
2016-08-16T01:14:49.304Z,88.12
2016-08-16T01:15:49.287Z,88.22
2016-08-16T01:16:49.280Z,87.84
2016-08-16T01:17:49.271Z,88.22
2016-08-16T01:18:49.270Z,88.31
2016-08-16T01:19:49.264Z,88.51
2016-08-16T01:20:49.260Z,88.6
2016-08-16T01:21:49.249Z,88.31
2016-08-16T01:22:49.249Z,88.41
2016-08-16T01:23:49.240Z,88.51
2016-08-16T01:24:49.231Z,88.7
2016-08-16T01:25:49.227Z,88.51
2016-08-16T01:26:49.358Z,88.6
2016-08-16T01:27:49.223Z,88.22
2016-08-16T01:28:49.215Z,88.41
2016-08-16T01:29:49.207Z,88.41
2016-08-16T01:30:49.909Z,88.31
2016-08-16T01:31:49.197Z,88.6
2016-08-16T01:32:49.187Z,88.6
2016-08-16T01:33:49.187Z,88.89
2016-08-16T01:34:49.179Z,88.79
2016-08-16T01:35:49.372Z,88.79
2016-08-16T01:36:49.167Z,88.89
2016-08-16T01:37:50.738Z,88.7
2016-08-16T01:38:49.511Z,88.98
2016-08-16T01:39:49.784Z,88.89
2016-08-16T01:40:49.678Z,89.07
2016-08-16T01:41:49.845Z,89.07
2016-08-16T01:42:49.132Z,89.07
2016-08-16T01:43:49.124Z,89.07
2016-08-16T01:44:49.120Z,88.98
2016-08-16T01:45:50.586Z,88.98
2016-08-16T01:46:49.339Z,88.89
2016-08-16T01:47:49.104Z,88.79
2016-08-16T01:48:49.097Z,88.7
2016-08-16T01:49:49.239Z,88.6
2016-08-16T01:50:49.087Z,88.98
2016-08-16T01:51:49.078Z,88.98
2016-08-16T01:52:49.075Z,89.26
2016-08-16T01:53:49.068Z,89.07
2016-08-16T01:54:49.780Z,89.75
2016-08-16T01:55:49.062Z,89.65
2016-08-16T01:56:49.063Z,89.75
2016-08-16T01:57:49.040Z,89.65
2016-08-16T01:58:49.035Z,89.46
2016-08-16T01:59:49.032Z,89.55
2016-08-16T02:00:49.024Z,89.46
2016-08-16T02:01:49.021Z,89.84
2016-08-16T02:02:49.015Z,89.55
2016-08-16T02:03:49.012Z,89.75
2016-08-16T02:04:48.999Z,90.03
2016-08-16T02:05:48.998Z,90.12
2016-08-16T02:06:48.993Z,89.75
2016-08-16T02:07:48.988Z,89.94
2016-08-16T02:08:48.980Z,89.75
2016-08-16T02:09:48.972Z,89.94
2016-08-16T02:10:48.966Z,89.79
2016-08-16T02:11:48.959Z,90.12
2016-08-16T02:12:48.956Z,90.17
2016-08-16T02:13:48.949Z,90.36
2016-08-16T02:14:48.939Z,90.22
2016-08-16T02:15:49.946Z,90.36
2016-08-16T02:16:48.929Z,90.27
2016-08-16T02:17:49.225Z,90.36
2016-08-16T02:18:49.169Z,90.17
2016-08-16T02:19:48.913Z,90.08
2016-08-16T02:20:49.352Z,90.27
2016-08-16T02:21:48.901Z,90.08
2016-08-16T02:22:48.997Z,90.46
2016-08-16T02:23:48.886Z,89.98
2016-08-16T02:24:48.881Z,90.41
2016-08-16T02:25:49.275Z,90.6
2016-08-16T02:26:48.871Z,90.84
2016-08-16T02:27:48.864Z,90.84
2016-08-16T02:28:48.856Z,90.79
2016-08-16T02:29:49.501Z,90.17
2016-08-16T02:30:48.847Z,90.56
2016-08-16T02:31:48.840Z,90.65
2016-08-16T02:32:48.831Z,90.5
2016-08-16T02:33:48.828Z,90.27
2016-08-16T02:34:48.819Z,90.36
2016-08-16T02:35:48.812Z,90.5
2016-08-16T02:36:48.812Z,90.56
2016-08-16T02:37:48.812Z,90.36
2016-08-16T02:38:48.798Z,90.41
2016-08-16T02:39:48.791Z,90.5
2016-08-16T02:40:48.788Z,90.17
2016-08-16T02:41:50.189Z,90.41
2016-08-16T02:42:48.771Z,90.41
2016-08-16T02:43:48.765Z,90.46
2016-08-16T02:44:48.763Z,90.46
2016-08-16T02:45:48.755Z,90.27
2016-08-16T02:46:48.748Z,90.22
2016-08-16T02:47:48.745Z,90.31
2016-08-16T02:48:48.731Z,90.22
2016-08-16T02:49:48.733Z,90.17
2016-08-16T02:50:48.723Z,90.12
2016-08-16T02:51:48.714Z,90.08
2016-08-16T02:52:48.712Z,90.12
2016-08-16T02:53:48.701Z,90.22
2016-08-16T02:55:49.839Z,90.22
2016-08-16T02:56:48.872Z,90.22
2016-08-16T02:57:49.924Z,90.6
2016-08-16T02:58:48.878Z,90.22
2016-08-16T02:59:48.668Z,90.31
2016-08-16T03:00:48.660Z,90.41
2016-08-16T03:01:48.658Z,90.36
2016-08-16T03:02:48.650Z,90.5
2016-08-16T03:03:48.648Z,90.12
2016-08-16T03:04:48.636Z,90.31
2016-08-16T03:05:48.635Z,90.79
2016-08-16T03:06:48.971Z,90.7
2016-08-16T03:07:48.620Z,90.7
2016-08-16T03:08:49.435Z,90.98
2016-08-16T03:09:48.610Z,90.5
2016-08-16T03:10:48.726Z,90.89
2016-08-16T03:11:48.599Z,90.5
2016-08-16T03:12:48.590Z,90.79
2016-08-16T03:13:48.587Z,90.5
2016-08-16T03:14:48.579Z,90.98
2016-08-16T03:15:48.574Z,90.98
2016-08-16T03:16:48.565Z,90.89
2016-08-16T03:17:48.570Z,90.89
2016-08-16T03:18:48.556Z,90.79
2016-08-16T03:19:48.545Z,90.79
2016-08-16T03:20:48.548Z,90.84
2016-08-16T03:21:48.541Z,90.89
2016-08-16T03:22:48.841Z,90.7
2016-08-16T03:23:48.530Z,90.7
2016-08-16T03:24:48.522Z,90.79
2016-08-16T03:25:48.511Z,90.94
2016-08-16T03:26:48.504Z,90.84
2016-08-16T03:27:48.501Z,90.84
2016-08-16T03:28:48.499Z,90.75
2016-08-16T03:29:48.488Z,90.84
2016-08-16T03:30:48.484Z,90.94
2016-08-16T03:31:48.475Z,90.98
2016-08-16T03:32:48.467Z,90.84
2016-08-16T03:33:48.468Z,90.65
2016-08-16T03:34:48.810Z,90.65
2016-08-16T03:35:48.853Z,91.31
2016-08-16T03:37:03.612Z,91.13
2016-08-16T03:37:48.440Z,91.03
2016-08-16T03:38:49.038Z,91.22
2016-08-16T03:39:48.739Z,91.22
2016-08-16T03:40:48.423Z,91.22
2016-08-16T03:41:48.419Z,91.22
2016-08-16T03:43:48.853Z,90.79
2016-08-16T03:44:48.399Z,91.08
2016-08-16T03:45:49.095Z,91.08
2016-08-16T03:46:48.381Z,91.08
2016-08-16T03:47:48.378Z,91.08
2016-08-16T03:48:48.374Z,90.79
2016-08-16T03:49:48.366Z,91.27
2016-08-16T03:50:48.360Z,90.89
2016-08-16T03:51:48.358Z,90.7
2016-08-16T03:52:48.353Z,90.7
2016-08-16T03:53:48.355Z,90.55
2016-08-16T03:54:48.340Z,90.17
2016-08-16T03:55:48.336Z,90.55
2016-08-16T03:56:48.331Z,90.45
2016-08-16T03:57:48.321Z,90.55
2016-08-16T03:58:48.317Z,91.13
2016-08-16T03:59:48.310Z,90.36
2016-08-16T04:00:48.302Z,90.08
2016-08-16T04:01:48.600Z,90.12
2016-08-16T04:02:48.290Z,89.93
2016-08-16T04:03:48.281Z,90.12
2016-08-16T04:04:48.276Z,89.64
2016-08-16T04:05:48.275Z,89.26
2016-08-16T04:06:48.270Z,89.54
2016-08-16T04:07:48.266Z,89.54
2016-08-16T04:08:48.257Z,89.26
2016-08-16T04:09:48.249Z,89.07
2016-08-16T04:10:48.245Z,89.17
2016-08-16T04:11:48.241Z,88.88
2016-08-16T04:12:48.431Z,88.69
2016-08-16T04:13:48.346Z,88.84
2016-08-16T04:14:48.375Z,89.12
2016-08-16T04:15:48.222Z,89.03
2016-08-16T04:16:48.253Z,88.84
2016-08-16T04:17:48.271Z,89.12
2016-08-16T04:18:48.203Z,89.12
2016-08-16T04:19:48.364Z,89.12
2016-08-16T04:20:48.190Z,89.22
2016-08-16T04:21:48.184Z,89.03
2016-08-16T04:22:48.180Z,89.6
2016-08-16T04:23:48.178Z,88.98
2016-08-16T04:24:49.082Z,89.64
2016-08-16T04:25:48.168Z,88.98
2016-08-16T04:26:48.160Z,89.36
2016-08-16T04:27:48.155Z,88.98
2016-08-16T04:28:48.595Z,88.69
2016-08-16T04:29:48.154Z,89.17
2016-08-16T04:30:48.135Z,89.02
2016-08-16T04:31:48.131Z,89.02
2016-08-16T04:32:48.126Z,88.49
2016-08-16T04:33:48.123Z,88.01
2016-08-16T04:34:48.119Z,88.11
2016-08-16T04:35:48.111Z,87.68
2016-08-16T04:36:48.109Z,87.68
2016-08-16T04:37:48.103Z,86.67
2016-08-16T04:38:48.100Z,86.19
2016-08-16T04:39:48.098Z,86.04
2016-08-16T04:40:48.091Z,85.75
2016-08-16T04:41:48.794Z,85.38
2016-08-16T04:42:48.084Z,84.7
2016-08-16T04:43:48.082Z,84.52
2016-08-16T04:44:48.083Z,84.13
2016-08-16T04:45:48.073Z,84.03
2016-08-16T04:46:48.067Z,84.03
2016-08-16T04:47:48.067Z,83.37
2016-08-16T04:48:48.068Z,83.37
2016-08-16T04:49:48.062Z,83.03
2016-08-16T04:50:48.054Z,82.83
2016-08-16T04:51:48.054Z,82.54
2016-08-16T04:53:02.969Z,81.97
2016-08-16T04:54:03.465Z,81.78
2016-08-16T04:54:48.199Z,81.25
2016-08-16T04:55:48.201Z,81.25
2016-08-16T04:56:48.042Z,80.38
2016-08-16T04:57:48.040Z,80.87
2016-08-16T04:58:48.054Z,80.24
2016-08-16T04:59:48.035Z,79.95
2016-08-16T05:00:48.032Z,79.66
2016-08-16T05:01:48.127Z,79.32
2016-08-16T05:02:48.226Z,78.27
2016-08-16T05:03:48.028Z,77.63
2016-08-16T05:04:48.376Z,77.44
2016-08-16T05:05:48.421Z,76.62
2016-08-16T05:06:48.023Z,75.56
2016-08-16T05:07:48.019Z,75.12
2016-08-16T05:08:48.015Z,74.68
2016-08-16T05:09:48.021Z,73.91
2016-08-16T05:10:48.014Z,73.27
2016-08-16T05:11:48.020Z,72.16
2016-08-16T05:12:48.019Z,71.87
2016-08-16T05:13:48.019Z,70.37
2016-08-16T05:14:48.014Z,69.15
2016-08-16T05:15:48.018Z,68.22
2016-08-16T05:16:48.022Z,67.93
2016-08-16T05:17:48.019Z,66.91
2016-08-16T05:18:48.017Z,65.88
2016-08-16T05:19:48.019Z,65.11
2016-08-16T05:20:48.025Z,64.28
2016-08-16T05:21:48.032Z,63.54
2016-08-16T05:22:48.032Z,62.6
2016-08-16T05:23:48.034Z,61.44
2016-08-16T05:24:48.037Z,60.22
2016-08-16T05:25:48.039Z,59.77
2016-08-16T05:26:48.041Z,59.7
2016-08-16T05:27:48.059Z,58.28
2016-08-16T05:28:48.053Z,57.24
2016-08-16T05:29:48.058Z,56.37
2016-08-16T05:30:48.062Z,56.21
2016-08-16T05:31:48.079Z,55.92
2016-08-16T05:32:48.075Z,54.95
2016-08-16T05:33:48.341Z,54.47
2016-08-16T05:34:49.240Z,54.37
2016-08-16T05:35:48.090Z,53.79
2016-08-16T05:36:48.092Z,53.57
2016-08-16T05:37:48.098Z,53.28
2016-08-16T05:38:48.112Z,53.28
2016-08-16T05:39:48.111Z,53.38
2016-08-16T05:41:48.120Z,53.06
2016-08-16T05:42:48.124Z,53.16
2016-08-16T05:43:49.106Z,53.42
2016-08-16T05:44:48.135Z,53.52
2016-08-16T05:45:48.136Z,53.33
2016-08-16T05:46:48.140Z,53.3
2016-08-16T05:47:48.140Z,53.49
2016-08-16T05:48:48.210Z,53.3
2016-08-16T05:49:48.154Z,52.62
2016-08-16T05:50:48.159Z,52.43
2016-08-16T05:51:48.167Z,52.72
2016-08-16T05:52:48.166Z,52.45
2016-08-16T05:53:48.175Z,52.26
2016-08-16T05:54:48.177Z,51.81
2016-08-16T05:55:48.180Z,51.23
2016-08-16T05:56:48.188Z,50.86
2016-08-16T05:57:48.186Z,50.67
2016-08-16T05:58:48.201Z,50.5
2016-08-16T05:59:48.204Z,50.12
2016-08-16T06:00:48.208Z,49.9
2016-08-16T06:01:48.212Z,49.73
2016-08-16T06:02:48.213Z,49.44
2016-08-16T06:03:48.221Z,49.44
2016-08-16T06:04:48.237Z,48.86
2016-08-16T06:05:48.230Z,48.86
2016-08-16T06:06:48.240Z,48.47
2016-08-16T06:07:48.244Z,48.27
2016-08-16T06:08:48.251Z,47.99
2016-08-16T06:09:48.254Z,47.99
2016-08-16T06:10:48.360Z,47.99
2016-08-16T06:11:48.636Z,47.79
2016-08-16T06:12:48.871Z,47.69
2016-08-16T06:13:48.275Z,47.6
2016-08-16T06:14:48.282Z,47.6
2016-08-16T06:15:48.290Z,47.69
2016-08-16T06:16:48.391Z,47.6
2016-08-16T06:17:48.306Z,47.6
2016-08-16T06:18:49.034Z,47.6
2016-08-16T06:19:48.312Z,47.79
2016-08-16T06:20:48.317Z,47.86
2016-08-16T06:21:48.574Z,47.86
2016-08-16T06:22:48.328Z,47.89
2016-08-16T06:23:48.327Z,47.77
2016-08-16T06:24:48.333Z,47.86
2016-08-16T06:25:48.355Z,47.86
2016-08-16T06:26:48.349Z,47.77
2016-08-16T06:27:48.354Z,47.67
2016-08-16T06:28:48.358Z,47.67
2016-08-16T06:29:48.365Z,47.38
2016-08-16T06:30:48.367Z,47.38
2016-08-16T06:31:48.372Z,47
2016-08-16T06:32:48.380Z,46.9
2016-08-16T06:33:48.385Z,47.86
2016-08-16T06:34:48.390Z,47.55
2016-08-16T06:35:48.392Z,47.45
2016-08-16T06:36:48.402Z,47.94
2016-08-16T06:37:48.403Z,48.01
2016-08-16T06:38:48.408Z,48.21
2016-08-16T06:39:48.419Z,48.11
2016-08-16T06:40:48.426Z,48.3
2016-08-16T06:41:48.429Z,48.39
2016-08-16T06:42:48.426Z,48.47
2016-08-16T06:43:48.438Z,48.47
2016-08-16T06:44:48.436Z,48.57
2016-08-16T06:45:48.450Z,48.57
2016-08-16T06:46:48.447Z,48.66
2016-08-16T06:47:49.154Z,48.66
2016-08-16T06:48:48.457Z,48.47
2016-08-16T06:50:48.465Z,48.28
2016-08-16T06:51:49.088Z,48.28
2016-08-16T06:52:48.499Z,48.18
2016-08-16T06:53:48.481Z,48.18
2016-08-16T06:54:48.484Z,47.91
2016-08-16T06:55:48.496Z,48.21
2016-08-16T06:56:48.508Z,48.21
2016-08-16T06:57:48.501Z,47.91
2016-08-16T06:58:50.026Z,47.91
2016-08-16T06:59:48.513Z,48.01
2016-08-16T07:00:48.520Z,48.21
2016-08-16T07:01:48.519Z,47.81
2016-08-16T07:02:48.538Z,48.21
2016-08-16T07:03:48.532Z,48.01
2016-08-16T07:04:48.549Z,47.91
2016-08-16T07:05:48.534Z,48.11
2016-08-16T07:06:48.543Z,47.91
2016-08-16T07:07:48.545Z,48.03
2016-08-16T07:08:48.551Z,47.63
2016-08-16T07:09:48.560Z,47.74
2016-08-16T07:10:48.556Z,47.45
2016-08-16T07:11:48.562Z,46.97
2016-08-16T07:12:48.564Z,47.07
2016-08-16T07:13:48.567Z,46.97
2016-08-16T07:14:48.574Z,46.88
2016-08-16T07:15:48.579Z,46.88
2016-08-16T07:16:48.588Z,46.68
2016-08-16T07:17:48.587Z,46.68
2016-08-16T07:18:48.593Z,46.97
2016-08-16T07:19:48.596Z,46.78
2016-08-16T07:20:48.600Z,46.8
2016-08-16T07:21:48.614Z,46.9
2016-08-16T07:22:48.617Z,46.22
2016-08-16T07:23:48.619Z,45.93
2016-08-16T07:24:48.626Z,46.03
2016-08-16T07:25:48.638Z,45.93
2016-08-16T07:26:48.637Z,46.12
2016-08-16T07:27:48.654Z,45.93
2016-08-16T07:28:48.648Z,45.76
2016-08-16T07:29:49.007Z,45.66
2016-08-16T07:31:49.125Z,45.08
2016-08-16T07:32:48.683Z,44.4
2016-08-16T07:33:48.685Z,44.5
2016-08-16T07:34:48.692Z,44.31
2016-08-16T07:35:48.704Z,44.12
2016-08-16T07:36:48.713Z,43.63
2016-08-16T07:37:49.374Z,43.54
2016-08-16T07:38:48.727Z,42.78
2016-08-16T07:40:49.596Z,42.13
2016-08-16T07:41:48.768Z,41.55
2016-08-16T07:42:49.019Z,41.62
2016-08-16T07:43:48.773Z,41.82
2016-08-16T07:44:48.791Z,41.91
2016-08-16T07:45:48.807Z,41.72
2016-08-16T07:46:48.806Z,41.64
2016-08-16T07:47:48.825Z,41.27
2016-08-16T07:48:48.827Z,40.91
2016-08-16T07:49:48.839Z,40.26
2016-08-16T07:50:48.851Z,39.59
2016-08-16T07:51:48.873Z,38.64
2016-08-16T07:52:48.874Z,37.88
2016-08-16T07:53:48.890Z,37.76
2016-08-16T07:54:48.903Z,37.74
2016-08-16T07:55:48.912Z,38.02
2016-08-16T07:56:48.928Z,38.52
2016-08-16T07:57:48.937Z,37.86
2016-08-16T07:58:48.948Z,37.68
2016-08-16T07:59:48.967Z,37.51
2016-08-16T08:00:48.980Z,36.83
2016-08-16T08:01:48.989Z,36.24
2016-08-16T08:02:49.003Z,35.97
2016-08-16T08:03:49.020Z,35.19
2016-08-16T08:04:49.033Z,35.21
2016-08-16T08:05:49.045Z,34.84
2016-08-16T08:06:49.081Z,34
2016-08-16T08:07:49.578Z,33.41
2016-08-16T08:08:49.093Z,31.66
2016-08-16T08:09:49.814Z,31.54
2016-08-16T08:10:49.906Z,32.78
2016-08-16T08:11:49.139Z,33.43
2016-08-16T08:12:49.143Z,33.51
2016-08-16T08:13:49.161Z,34.46
2016-08-16T08:14:49.171Z,35.03
2016-08-16T08:15:49.183Z,35.13
2016-08-16T08:16:49.904Z,35.98
2016-08-16T08:17:50.627Z,36.74
2016-08-16T08:18:49.223Z,37.01
2016-08-16T08:19:49.794Z,37.57
2016-08-16T08:20:49.247Z,37.67
2016-08-16T08:21:49.255Z,38.06
2016-08-16T08:22:49.268Z,38.33
2016-08-16T08:23:49.275Z,38.7
2016-08-16T08:24:49.285Z,39.28
2016-08-16T08:25:49.298Z,38.99
2016-08-16T08:26:49.304Z,39.09
2016-08-16T08:27:49.319Z,38.54
2016-08-16T08:28:49.323Z,38.37
2016-08-16T08:29:49.337Z,37.59
2016-08-16T08:30:49.342Z,37.21
2016-08-16T08:31:49.351Z,37.49
2016-08-16T08:32:49.367Z,38.07
2016-08-16T08:33:49.383Z,38.07
2016-08-16T08:34:49.390Z,37.51
2016-08-16T08:35:49.394Z,37.24
2016-08-16T08:36:49.404Z,37.05
2016-08-16T08:37:49.414Z,37.15
2016-08-16T08:38:49.424Z,37.23
2016-08-16T08:39:49.433Z,37.59
2016-08-16T08:40:50.155Z,37.3
2016-08-16T08:41:49.457Z,37.4
2016-08-16T08:42:49.461Z,37.69
2016-08-16T08:43:49.473Z,37.23
2016-08-16T08:44:49.479Z,37.24
2016-08-16T08:45:49.511Z,37.34
2016-08-16T08:47:49.506Z,36.87
2016-08-16T08:48:50.470Z,36.68
2016-08-16T08:49:49.527Z,36.58
2016-08-16T08:50:49.734Z,36.11
2016-08-16T08:51:49.542Z,35.71
2016-08-16T08:52:49.550Z,35.78
2016-08-16T08:53:49.562Z,35.69
2016-08-16T08:54:49.565Z,35.96
2016-08-16T08:56:49.585Z,37.01
2016-08-16T08:57:50.191Z,37.19
2016-08-16T08:58:49.601Z,37.38
2016-08-16T08:59:50.460Z,37.57
2016-08-16T09:00:49.615Z,37.38
2016-08-16T09:01:49.622Z,37.85
2016-08-16T09:02:49.629Z,37.38
2016-08-16T09:03:49.636Z,37.57
2016-08-16T09:04:49.642Z,37.77
2016-08-16T09:05:49.651Z,37.48
2016-08-16T09:06:49.660Z,37.67
2016-08-16T09:07:49.662Z,37.49
2016-08-16T09:08:49.672Z,37.21
2016-08-16T09:09:49.677Z,37.28
2016-08-16T09:10:49.704Z,36.9
2016-08-16T09:11:49.690Z,37.28
2016-08-16T09:12:50.564Z,37.19
2016-08-16T09:13:49.710Z,37.36
2016-08-16T09:14:49.711Z,37.75
2016-08-16T09:15:49.722Z,37.65
2016-08-16T09:16:49.724Z,37.46
2016-08-16T09:17:49.738Z,37.55
2016-08-16T09:18:49.739Z,37.34
2016-08-16T09:19:49.744Z,37.54
2016-08-16T09:20:49.754Z,37.46
2016-08-16T09:21:49.755Z,37.63
2016-08-16T09:22:49.769Z,37.63
2016-08-16T09:23:49.771Z,38.02
2016-08-16T09:24:49.789Z,38.1
2016-08-16T09:25:50.809Z,38.39
2016-08-16T09:27:50.723Z,38.39
2016-08-16T09:28:49.806Z,38.58
2016-08-16T09:29:50.918Z,39.26
2016-08-16T09:30:50.228Z,38.76
2016-08-16T09:31:49.822Z,39.9
2016-08-16T09:32:49.828Z,40.38
2016-08-16T09:33:49.838Z,40.17
2016-08-16T09:34:49.844Z,40.65
2016-08-16T09:35:50.749Z,41.3
2016-08-16T09:36:50.004Z,41.3
2016-08-16T09:37:51.165Z,41.96
2016-08-16T09:38:50.977Z,42.15
2016-08-16T09:39:50.638Z,42.44
2016-08-16T09:40:49.874Z,42.15
2016-08-16T09:41:50.036Z,42.36
2016-08-16T09:42:49.885Z,42.46
2016-08-16T09:43:49.886Z,41.98
2016-08-16T09:44:49.892Z,41.42
2016-08-16T09:45:49.899Z,41.03
2016-08-16T09:46:49.896Z,41.35
2016-08-16T09:47:49.907Z,40.57
2016-08-16T09:48:49.911Z,40.4
2016-08-16T09:49:49.912Z,40.52
2016-08-16T09:50:49.922Z,40.32
2016-08-16T09:51:49.926Z,40.2
2016-08-16T09:52:49.926Z,40.57
2016-08-16T09:53:49.941Z,40.77
2016-08-16T09:54:49.943Z,41.23
2016-08-16T09:55:49.942Z,41.02
2016-08-16T09:56:49.946Z,41.5
2016-08-16T09:57:49.948Z,41.5
2016-08-16T09:58:49.958Z,41.6
2016-08-16T09:59:49.956Z,41.86
2016-08-16T10:00:51.162Z,41.96
2016-08-16T10:01:49.964Z,41.4
2016-08-16T10:02:49.968Z,41.11
2016-08-16T10:03:49.980Z,41.11
2016-08-16T10:04:51.033Z,41.42
2016-08-16T10:05:49.983Z,41.03
2016-08-16T10:06:49.982Z,41.13
2016-08-16T10:07:49.997Z,41.13
2016-08-16T10:08:50.141Z,41.33
2016-08-16T10:09:50.003Z,41.02
2016-08-16T10:10:50.003Z,41.13
2016-08-16T10:11:50.080Z,40.94
2016-08-16T10:12:50.014Z,41.23
2016-08-16T10:14:04.933Z,40.67
2016-08-16T10:14:50.022Z,40.26
2016-08-16T10:15:50.026Z,40.26
2016-08-16T10:16:50.081Z,40.17
2016-08-16T10:17:50.783Z,40.92
2016-08-16T10:18:50.087Z,41.02
2016-08-16T10:19:50.042Z,40.92
2016-08-16T10:20:50.039Z,41.2
2016-08-16T10:21:50.743Z,40.75
2016-08-16T10:22:50.048Z,40.84
2016-08-16T10:23:50.060Z,40.38
2016-08-16T10:24:50.054Z,40.3
2016-08-16T10:25:50.066Z,39.04
2016-08-16T10:26:50.065Z,39.43
2016-08-16T10:27:50.070Z,38.56
2016-08-16T10:28:50.069Z,38.64
2016-08-16T10:29:50.076Z,38.83
2016-08-16T10:30:50.078Z,39.2
2016-08-16T10:31:50.089Z,38.91
2016-08-16T10:32:50.085Z,39.29
2016-08-16T10:33:50.090Z,39.86
2016-08-16T10:34:50.103Z,40.07
2016-08-16T10:35:50.102Z,40.45
2016-08-16T10:36:50.106Z,40.55
2016-08-16T10:37:50.114Z,40.07
2016-08-16T10:38:50.113Z,39.61
2016-08-16T10:39:50.114Z,39.22
2016-08-16T10:40:50.119Z,38.45
2016-08-16T10:41:50.124Z,38.25
2016-08-16T10:42:50.129Z,38.06
2016-08-16T10:43:50.137Z,37.96
2016-08-16T10:45:51.467Z,37.96
2016-08-16T10:46:50.144Z,38.25
2016-08-16T10:47:50.910Z,38.23
2016-08-16T10:48:50.712Z,38.33
2016-08-16T10:49:50.157Z,38.43
2016-08-16T10:50:50.437Z,38.23
2016-08-16T10:51:50.358Z,38.25
2016-08-16T10:52:50.166Z,37.96
2016-08-16T10:53:50.683Z,37.96
2016-08-16T10:54:50.952Z,38.06
2016-08-16T10:55:50.175Z,37.79
2016-08-16T10:56:51.238Z,37.67
2016-08-16T10:57:50.182Z,37.67
2016-08-16T10:58:50.481Z,38.18
2016-08-16T10:59:50.194Z,38.37
2016-08-16T11:00:50.195Z,38.1
2016-08-16T11:01:50.195Z,38.39
2016-08-16T11:02:50.204Z,37.52
2016-08-16T11:03:50.206Z,37.71
2016-08-16T11:04:50.211Z,37.88
2016-08-16T11:05:50.223Z,37.79
2016-08-16T11:06:50.222Z,37.98
2016-08-16T11:08:50.229Z,38.25
2016-08-16T11:09:50.235Z,38.64
2016-08-16T11:10:50.237Z,38.64
2016-08-16T11:11:50.239Z,38.35
2016-08-16T11:12:50.241Z,38.74
2016-08-16T11:13:50.244Z,38.62
2016-08-16T11:14:50.250Z,39.29
2016-08-16T11:15:50.254Z,39.11
2016-08-16T11:16:50.256Z,38.81
2016-08-16T11:17:50.261Z,38.62
2016-08-16T11:19:50.269Z,38.62
2016-08-16T11:20:50.273Z,38.25
2016-08-16T11:21:50.281Z,38.25
2016-08-16T11:22:50.987Z,38.06
2016-08-16T11:23:50.286Z,37.88
2016-08-16T11:25:05.017Z,37.88
2016-08-16T11:25:51.809Z,37.77
2016-08-16T11:26:50.293Z,37.48
2016-08-16T11:27:50.300Z,37.4
2016-08-16T11:28:50.712Z,37.29
2016-08-16T11:29:50.304Z,37.77
2016-08-16T11:30:50.308Z,37.56
2016-08-16T11:31:50.311Z,37.85
2016-08-16T11:32:50.310Z,37.75
2016-08-16T11:33:50.315Z,37.95
2016-08-16T11:34:50.321Z,37.95
2016-08-16T11:35:50.425Z,37.95
2016-08-16T11:36:50.530Z,37.85
2016-08-16T11:37:50.340Z,37.96
2016-08-16T11:38:50.350Z,37.67
2016-08-16T11:39:50.338Z,38.06
2016-08-16T11:40:50.340Z,37.87
2016-08-16T11:41:50.342Z,37.58
2016-08-16T11:42:50.347Z,37.67
2016-08-16T11:43:50.347Z,37.48
2016-08-16T11:44:51.054Z,37.7
2016-08-16T11:45:50.357Z,37.5
2016-08-16T11:46:50.373Z,37.21
2016-08-16T11:47:50.367Z,36.94
2016-08-16T11:48:50.365Z,37.04
2016-08-16T11:49:50.368Z,36.55
2016-08-16T11:50:50.368Z,36.47
2016-08-16T11:51:50.377Z,36.38
2016-08-16T11:52:50.380Z,36.28
2016-08-16T11:53:57.339Z,36.18
2016-08-16T11:54:50.400Z,36.66
2016-08-16T11:55:50.397Z,35.99
2016-08-16T11:56:50.405Z,36.16
2016-08-16T11:57:51.922Z,35.95
2016-08-16T11:58:56.673Z,36.72
2016-08-16T11:59:50.406Z,37.29
2016-08-16T12:00:50.410Z,37.67
2016-08-16T12:01:50.411Z,37.46
2016-08-16T12:02:51.778Z,37.46
2016-08-16T12:04:03.924Z,37.46
2016-08-16T12:04:51.074Z,37.46
2016-08-16T12:05:50.430Z,37.17
2016-08-16T12:06:50.598Z,37.29
2016-08-16T12:07:50.610Z,37.19
2016-08-16T12:08:50.433Z,37.21
2016-08-16T12:09:50.443Z,37.02
2016-08-16T12:10:50.442Z,37.13
2016-08-16T12:11:51.967Z,36.65
2016-08-16T12:12:51.515Z,36.18
2016-08-16T12:13:50.761Z,36.57
2016-08-16T12:14:58.195Z,35.6
2016-08-16T12:15:51.983Z,35.31
2016-08-16T12:16:51.126Z,34.83
2016-08-16T12:18:05.438Z,34.54
2016-08-16T12:18:50.479Z,34.54
2016-08-16T12:19:50.480Z,34.73
2016-08-16T12:20:50.490Z,34.54
2016-08-16T12:21:50.487Z,33.95
2016-08-16T12:22:50.494Z,33.39
2016-08-16T12:23:50.498Z,33.28
2016-08-16T12:24:50.504Z,33.49
2016-08-16T12:25:50.505Z,33.49
2016-08-16T12:26:50.519Z,33.59
2016-08-16T12:27:50.513Z,33.29
2016-08-16T12:28:50.516Z,33.29
2016-08-16T12:30:03.952Z,33.12
2016-08-16T12:30:50.535Z,33.31
2016-08-16T12:31:50.546Z,33.51
2016-08-16T12:32:50.535Z,33.41
2016-08-16T12:33:50.553Z,33.31
2016-08-16T12:34:50.548Z,33.31
2016-08-16T12:35:50.557Z,33.31
2016-08-16T12:36:50.556Z,33.42
2016-08-16T12:37:51.269Z,33.52
2016-08-16T12:38:50.577Z,33.42
2016-08-16T12:39:50.572Z,33.15
2016-08-16T12:40:50.577Z,32.96
2016-08-16T12:41:50.778Z,33.15
2016-08-16T12:42:50.887Z,33.25
2016-08-16T12:43:50.593Z,32.84
2016-08-16T12:44:51.260Z,32.84
2016-08-16T12:45:51.158Z,32.56
2016-08-16T12:46:50.611Z,32.56
2016-08-16T12:48:50.616Z,32.37
2016-08-16T12:49:50.628Z,32.1
2016-08-16T12:50:52.544Z,31.81
2016-08-16T12:51:50.990Z,31.05
2016-08-16T12:53:50.649Z,30.57
2016-08-16T12:54:50.643Z,30.47
2016-08-16T12:55:50.655Z,30.76
2016-08-16T12:56:50.809Z,30.55
2016-08-16T12:57:50.665Z,30.94
2016-08-16T12:58:50.684Z,30.45
2016-08-16T12:59:50.690Z,31.02
2016-08-16T13:00:50.682Z,31.31
2016-08-16T13:01:50.687Z,31.21
2016-08-16T13:02:50.694Z,30.82
2016-08-16T13:03:50.697Z,31.12
2016-08-16T13:04:50.703Z,31.5
2016-08-16T13:06:50.714Z,31.42
2016-08-16T13:07:50.733Z,30.94
2016-08-16T13:08:50.730Z,31.04
2016-08-16T13:09:50.736Z,30.27
2016-08-16T13:10:50.741Z,29.79
2016-08-16T13:11:50.752Z,29.87